createdAt,value
2023-04-10T00:00:21.441Z,2.69
2023-04-10T00:00:53.142Z,2.69
2023-04-10T00:01:24.988Z,2.69
2023-04-10T00:01:57.056Z,2.57
2023-04-10T00:02:29.424Z,2.57
2023-04-10T00:03:01.379Z,2.57
2023-04-10T00:03:33.472Z,2.57
2023-04-10T00:04:05.148Z,2.46
2023-04-10T00:04:37.025Z,2.46
2023-04-10T00:05:09.030Z,2.46
2023-04-10T00:05:41.052Z,2.62
2023-04-10T00:06:12.840Z,2.57
2023-04-10T00:06:44.820Z,2.41
2023-04-10T00:07:16.820Z,2.57
2023-04-10T00:07:48.673Z,2.41
2023-04-10T00:08:20.963Z,2.57
2023-04-10T00:08:52.729Z,2.57
2023-04-10T00:09:24.590Z,2.57
2023-04-10T00:09:56.600Z,2.57
2023-04-10T00:10:28.746Z,2.41
2023-04-10T00:11:05.862Z,2.41
2023-04-10T00:11:32.662Z,2.46
2023-04-10T00:12:04.627Z,2.40
2023-04-10T00:12:36.557Z,2.51
2023-04-10T00:13:08.568Z,2.51
2023-04-10T00:13:40.797Z,2.51
2023-04-10T00:14:12.440Z,2.62
2023-04-10T00:14:44.533Z,2.62
2023-04-10T00:15:16.553Z,2.62
2023-04-10T00:15:48.597Z,2.73
2023-04-10T00:16:20.471Z,2.73
2023-04-10T00:16:52.394Z,2.55
2023-04-10T00:17:24.416Z,2.73
2023-04-10T00:17:56.433Z,2.73
2023-04-10T00:18:28.279Z,2.62
2023-04-10T00:19:00.319Z,2.62
2023-04-10T00:19:32.282Z,2.62
2023-04-10T00:20:04.326Z,2.62
2023-04-10T00:20:36.157Z,2.51
2023-04-10T00:21:08.160Z,2.51
2023-04-10T00:21:40.244Z,2.51
2023-04-10T00:22:12.266Z,2.69
2023-04-10T00:22:44.057Z,2.57
2023-04-10T00:23:16.197Z,2.57
2023-04-10T00:23:48.100Z,2.62
2023-04-10T00:24:20.143Z,2.62
2023-04-10T00:24:51.954Z,2.57
2023-04-10T00:25:23.992Z,2.57
2023-04-10T00:25:55.990Z,2.57
2023-04-10T00:26:28.075Z,2.57
2023-04-10T00:27:00.050Z,2.47
2023-04-10T00:27:31.912Z,2.64
2023-04-10T00:28:03.936Z,2.64
2023-04-10T00:28:35.926Z,2.64
2023-04-10T00:29:07.803Z,2.53
2023-04-10T00:29:39.845Z,2.53
2023-04-10T00:30:12.051Z,2.41
2023-04-10T00:30:43.911Z,2.41
2023-04-10T00:31:15.684Z,2.48
2023-04-10T00:31:47.787Z,2.48
2023-04-10T00:32:19.834Z,2.48
2023-04-10T00:32:51.813Z,2.48
2023-04-10T00:33:23.622Z,2.43
2023-04-10T00:33:55.997Z,2.43
2023-04-10T00:34:27.710Z,2.43
2023-04-10T00:34:59.827Z,2.43
2023-04-10T00:35:31.625Z,2.43
2023-04-10T00:36:03.566Z,2.43
2023-04-10T00:36:35.589Z,2.43
2023-04-10T00:37:07.588Z,2.43
2023-04-10T00:37:39.471Z,2.43
2023-04-10T00:38:11.511Z,2.43
2023-04-10T00:38:43.475Z,2.43
2023-04-10T00:39:15.532Z,2.32
2023-04-10T00:39:47.347Z,2.32
2023-04-10T00:40:19.540Z,2.32
2023-04-10T00:40:51.644Z,2.32
2023-04-10T00:41:23.426Z,2.32
2023-04-10T00:41:55.231Z,2.32
2023-04-10T00:42:27.381Z,2.32
2023-04-10T00:42:59.297Z,2.32
2023-04-10T00:43:31.533Z,2.32
2023-04-10T00:44:03.169Z,2.32
2023-04-10T00:44:35.184Z,2.32
2023-04-10T00:45:07.507Z,2.32
2023-04-10T00:45:39.473Z,2.32
2023-04-10T00:46:11.249Z,2.32
2023-04-10T00:46:43.084Z,2.32
2023-04-10T00:47:15.189Z,2.32
2023-04-10T00:47:47.161Z,2.32
2023-04-10T00:48:18.974Z,2.32
2023-04-10T00:48:51.243Z,2.32
2023-04-10T00:49:23.068Z,2.32
2023-04-10T00:49:55.061Z,2.32
2023-04-10T00:50:26.887Z,2.32
2023-04-10T00:50:58.913Z,2.32
2023-04-10T00:51:31.087Z,2.21
2023-04-10T00:52:02.976Z,2.21
2023-04-10T00:52:34.782Z,2.21
2023-04-10T00:53:06.800Z,2.21
2023-04-10T00:53:38.908Z,2.21
2023-04-10T00:54:11.027Z,2.21
2023-04-10T00:54:42.702Z,2.21
2023-04-10T00:55:14.737Z,2.21
2023-04-10T00:55:46.818Z,2.21
2023-04-10T00:56:18.812Z,2.21
2023-04-10T00:56:50.787Z,2.21
2023-04-10T00:57:22.600Z,2.21
2023-04-10T00:57:55.042Z,2.21
2023-04-10T00:58:26.650Z,2.21
2023-04-10T00:58:58.735Z,2.21
2023-04-10T00:59:30.645Z,2.10
2023-04-10T01:00:02.905Z,2.10
2023-04-10T01:00:34.637Z,2.10
2023-04-10T01:01:06.400Z,2.10
2023-04-10T01:01:38.599Z,2.26
2023-04-10T01:02:10.674Z,2.15
2023-04-10T01:02:42.561Z,2.10
2023-04-10T01:03:14.441Z,2.10
2023-04-10T01:03:46.545Z,2.10
2023-04-10T01:04:18.557Z,2.10
2023-04-10T01:04:50.488Z,1.99
2023-04-10T01:05:22.260Z,1.99
2023-04-10T01:05:54.298Z,1.99
2023-04-10T01:06:26.358Z,1.99
2023-04-10T01:06:58.347Z,1.99
2023-04-10T01:07:30.145Z,1.99
2023-04-10T01:08:02.242Z,1.99
2023-04-10T01:08:34.236Z,1.88
2023-04-10T01:09:06.361Z,1.88
2023-04-10T01:09:38.151Z,2.04
2023-04-10T01:10:10.175Z,2.04
2023-04-10T01:10:42.541Z,1.99
2023-04-10T01:11:14.177Z,1.99
2023-04-10T01:11:45.974Z,1.99
2023-04-10T01:12:18.000Z,1.99
2023-04-10T01:12:50.020Z,1.88
2023-04-10T01:13:22.073Z,1.88
2023-04-10T01:13:54.046Z,1.88
2023-04-10T01:14:25.913Z,1.88
2023-04-10T01:14:57.951Z,2.04
2023-04-10T01:15:30.127Z,2.04
2023-04-10T01:16:01.816Z,2.04
2023-04-10T01:16:33.946Z,2.04
2023-04-10T01:17:05.931Z,1.92
2023-04-10T01:17:37.947Z,1.92
2023-04-10T01:18:09.754Z,1.92
2023-04-10T01:18:41.760Z,1.92
2023-04-10T01:19:13.786Z,1.92
2023-04-10T01:19:45.794Z,1.92
2023-04-10T01:20:17.642Z,1.82
2023-04-10T01:20:49.635Z,1.82
2023-04-10T01:21:21.728Z,1.82
2023-04-10T01:21:53.697Z,1.82
2023-04-10T01:22:25.538Z,1.82
2023-04-10T01:22:57.545Z,1.82
2023-04-10T01:23:29.672Z,1.82
2023-04-10T01:24:01.604Z,1.82
2023-04-10T01:24:33.473Z,1.82
2023-04-10T01:25:05.498Z,1.82
2023-04-10T01:25:37.584Z,1.82
2023-04-10T01:26:09.541Z,1.82
2023-04-10T01:26:41.602Z,1.82
2023-04-10T01:27:13.363Z,1.82
2023-04-10T01:27:45.394Z,1.82
2023-04-10T01:28:17.407Z,1.98
2023-04-10T01:28:49.447Z,1.82
2023-04-10T01:29:21.680Z,1.82
2023-04-10T01:29:53.306Z,1.98
2023-04-10T01:30:25.451Z,1.98
2023-04-10T01:30:57.653Z,1.98
2023-04-10T01:31:29.196Z,1.93
2023-04-10T01:32:01.401Z,1.93
2023-04-10T01:32:33.925Z,1.93
2023-04-10T01:33:05.319Z,1.93
2023-04-10T01:33:37.134Z,1.93
2023-04-10T01:34:09.242Z,1.93
2023-04-10T01:34:41.411Z,1.82
2023-04-10T01:35:13.209Z,1.82
2023-04-10T01:35:45.093Z,1.82
2023-04-10T01:36:17.001Z,1.98
2023-04-10T01:36:49.033Z,1.98
2023-04-10T01:37:21.265Z,1.98
2023-04-10T01:37:52.888Z,1.98
2023-04-10T01:38:24.960Z,1.98
2023-04-10T01:38:57.001Z,1.87
2023-04-10T01:39:28.822Z,1.87
2023-04-10T01:40:01.104Z,1.87
2023-04-10T01:40:32.880Z,1.87
2023-04-10T01:41:04.919Z,1.87
2023-04-10T01:41:36.757Z,1.87
2023-04-10T01:42:09.333Z,1.87
2023-04-10T01:42:41.949Z,1.87
2023-04-10T01:43:12.842Z,1.75
2023-04-10T01:43:44.655Z,1.75
2023-04-10T01:44:16.758Z,1.75
2023-04-10T01:44:48.711Z,1.75
2023-04-10T01:45:21.192Z,1.75
2023-04-10T01:45:52.612Z,1.64
2023-04-10T01:46:24.615Z,1.64
2023-04-10T01:46:57.133Z,1.64
2023-04-10T01:47:28.663Z,1.64
2023-04-10T01:48:00.742Z,1.79
2023-04-10T01:48:32.498Z,1.79
2023-04-10T01:49:04.562Z,1.79
2023-04-10T01:49:36.609Z,1.74
2023-04-10T01:50:08.433Z,1.74
2023-04-10T01:50:40.485Z,1.74
2023-04-10T01:51:12.449Z,1.74
2023-04-10T01:51:44.465Z,1.74
2023-04-10T01:52:16.485Z,1.63
2023-04-10T01:52:48.332Z,1.63
2023-04-10T01:53:20.435Z,1.63
2023-04-10T01:53:52.554Z,1.63
2023-04-10T01:54:24.338Z,1.63
2023-04-10T01:54:56.324Z,1.52
2023-04-10T01:55:28.298Z,1.52
2023-04-10T01:56:00.336Z,1.52
2023-04-10T01:56:32.123Z,1.52
2023-04-10T01:57:04.238Z,1.52
2023-04-10T01:57:36.184Z,1.52
2023-04-10T01:58:08.213Z,1.52
2023-04-10T01:58:40.011Z,1.52
2023-04-10T01:59:12.050Z,1.52
2023-04-10T01:59:44.078Z,1.40
2023-04-10T02:00:16.571Z,1.40
2023-04-10T02:00:47.952Z,1.56
2023-04-10T02:01:29.194Z,1.56
2023-04-10T02:01:52.052Z,1.45
2023-04-10T02:02:24.194Z,1.45
2023-04-10T02:02:56.051Z,1.45
2023-04-10T02:03:28.188Z,1.45
2023-04-10T02:04:00.003Z,1.45
2023-04-10T02:04:32.020Z,1.45
2023-04-10T02:05:03.898Z,1.45
2023-04-10T02:05:35.840Z,1.45
2023-04-10T02:06:07.862Z,1.45
2023-04-10T02:06:39.891Z,1.45
2023-04-10T02:07:11.655Z,1.45
2023-04-10T02:07:43.723Z,1.40
2023-04-10T02:08:15.740Z,1.40
2023-04-10T02:08:47.549Z,1.40
2023-04-10T02:09:19.898Z,1.40
2023-04-10T02:09:51.740Z,1.40
2023-04-10T02:10:23.680Z,1.40
2023-04-10T02:10:55.493Z,1.40
2023-04-10T02:11:27.675Z,1.29
2023-04-10T02:11:59.566Z,1.29
2023-04-10T02:12:31.643Z,1.29
2023-04-10T02:13:03.406Z,1.29
2023-04-10T02:13:35.464Z,1.29
2023-04-10T02:14:07.498Z,1.29
2023-04-10T02:14:39.516Z,1.19
2023-04-10T02:15:11.535Z,1.19
2023-04-10T02:15:43.362Z,1.19
2023-04-10T02:16:15.384Z,1.19
2023-04-10T02:16:47.394Z,1.19
2023-04-10T02:17:19.290Z,1.19
2023-04-10T02:17:51.446Z,1.19
2023-04-10T02:18:23.285Z,1.19
2023-04-10T02:18:55.308Z,1.19
2023-04-10T02:19:27.139Z,1.19
2023-04-10T02:19:59.138Z,1.19
2023-04-10T02:20:31.317Z,1.07
2023-04-10T02:21:03.209Z,1.07
2023-04-10T02:21:35.094Z,1.07
2023-04-10T02:22:07.118Z,1.07
2023-04-10T02:22:39.121Z,1.07
2023-04-10T02:23:11.388Z,1.07
2023-04-10T02:23:42.929Z,1.07
2023-04-10T02:24:14.969Z,1.07
2023-04-10T02:24:47.037Z,1.07
2023-04-10T02:25:19.045Z,1.07
2023-04-10T02:25:50.971Z,1.07
2023-04-10T02:26:22.868Z,1.07
2023-04-10T02:26:54.902Z,1.07
2023-04-10T02:27:26.917Z,1.07
2023-04-10T02:27:58.963Z,1.07
2023-04-10T02:28:30.924Z,.96
2023-04-10T02:29:02.804Z,.96
2023-04-10T02:29:35.001Z,.96
2023-04-10T02:30:07.025Z,.96
2023-04-10T02:30:38.723Z,.96
2023-04-10T02:31:11.038Z,.96
2023-04-10T02:31:42.869Z,.96
2023-04-10T02:32:14.788Z,.96
2023-04-10T02:32:46.632Z,.96
2023-04-10T02:33:18.637Z,.96
2023-04-10T02:33:51.064Z,.91
2023-04-10T02:34:22.498Z,.91
2023-04-10T02:34:54.902Z,.91
2023-04-10T02:35:26.555Z,.91
2023-04-10T02:35:58.622Z,.91
2023-04-10T02:36:30.816Z,1.07
2023-04-10T02:37:02.412Z,1.07
2023-04-10T02:37:34.532Z,1.07
2023-04-10T02:38:06.502Z,1.07
2023-04-10T02:38:38.530Z,1.12
2023-04-10T02:39:10.560Z,1.12
2023-04-10T02:39:42.385Z,1.12
2023-04-10T02:40:14.415Z,1.12
2023-04-10T02:40:46.448Z,1.12
2023-04-10T02:41:18.282Z,1.12
2023-04-10T02:41:50.390Z,1.12
2023-04-10T02:42:22.299Z,1.12
2023-04-10T02:42:54.350Z,1.12
2023-04-10T02:43:26.176Z,1.12
2023-04-10T02:43:58.213Z,1.12
2023-04-10T02:44:30.276Z,1.12
2023-04-10T02:45:02.387Z,1.12
2023-04-10T02:45:34.124Z,1.07
2023-04-10T02:46:06.120Z,1.07
2023-04-10T02:46:38.159Z,1.07
2023-04-10T02:47:10.156Z,1.07
2023-04-10T02:47:42.026Z,1.07
2023-04-10T02:48:13.973Z,1.07
2023-04-10T02:48:46.006Z,1.07
2023-04-10T02:49:18.199Z,1.07
2023-04-10T02:49:49.906Z,1.07
2023-04-10T02:50:21.902Z,1.07
2023-04-10T02:50:53.986Z,.96
2023-04-10T02:51:26.000Z,.96
2023-04-10T02:51:57.786Z,.96
2023-04-10T02:52:29.809Z,.96
2023-04-10T02:53:01.873Z,.96
2023-04-10T02:53:34.216Z,.96
2023-04-10T02:54:05.735Z,.85
2023-04-10T02:54:37.715Z,.85
2023-04-10T02:55:09.789Z,.85
2023-04-10T02:55:41.779Z,.85
2023-04-10T02:56:13.701Z,.85
2023-04-10T02:56:45.604Z,.85
2023-04-10T02:57:17.633Z,.85
2023-04-10T02:57:49.672Z,.85
2023-04-10T02:58:21.503Z,.85
2023-04-10T02:58:53.566Z,.85
2023-04-10T02:59:25.556Z,.85
2023-04-10T02:59:57.650Z,.85
2023-04-10T03:00:29.517Z,.85
2023-04-10T03:01:01.574Z,.85
2023-04-10T03:01:33.632Z,.85
2023-04-10T03:02:05.564Z,.85
2023-04-10T03:02:37.582Z,.85
2023-04-10T03:03:09.435Z,.85
2023-04-10T03:03:41.571Z,.85
2023-04-10T03:04:13.618Z,.85
2023-04-10T03:04:45.270Z,.85
2023-04-10T03:05:17.275Z,.85
2023-04-10T03:05:49.345Z,.85
2023-04-10T03:06:21.373Z,.85
2023-04-10T03:06:53.112Z,.85
2023-04-10T03:07:25.173Z,.85
2023-04-10T03:07:57.625Z,.99
2023-04-10T03:08:29.188Z,.99
2023-04-10T03:09:01.205Z,.87
2023-04-10T03:09:33.101Z,.87
2023-04-10T03:10:05.175Z,.87
2023-04-10T03:10:37.118Z,.87
2023-04-10T03:11:08.968Z,.87
2023-04-10T03:11:41.111Z,.73
2023-04-10T03:12:12.984Z,.73
2023-04-10T03:12:45.312Z,.73
2023-04-10T03:13:17.046Z,.73
2023-04-10T03:13:48.916Z,.62
2023-04-10T03:14:21.072Z,.62
2023-04-10T03:14:52.928Z,.62
2023-04-10T03:15:24.870Z,.62
2023-04-10T03:15:56.916Z,.62
2023-04-10T03:16:28.899Z,.62
2023-04-10T03:17:00.987Z,.62
2023-04-10T03:17:32.908Z,.62
2023-04-10T03:18:04.785Z,.62
2023-04-10T03:18:36.710Z,.62
2023-04-10T03:19:08.893Z,.62
2023-04-10T03:19:40.861Z,.62
2023-04-10T03:20:12.647Z,.57
2023-04-10T03:20:45.309Z,.57
2023-04-10T03:21:16.664Z,.57
2023-04-10T03:21:49.001Z,.57
2023-04-10T03:22:20.745Z,.57
2023-04-10T03:22:52.613Z,.57
2023-04-10T03:23:24.608Z,.57
2023-04-10T03:23:56.585Z,.57
2023-04-10T03:24:28.485Z,.46
2023-04-10T03:25:00.773Z,.46
2023-04-10T03:25:32.542Z,.46
2023-04-10T03:26:04.424Z,.46
2023-04-10T03:26:36.362Z,.46
2023-04-10T03:27:09.386Z,.46
2023-04-10T03:27:40.608Z,.46
2023-04-10T03:28:12.238Z,.46
2023-04-10T03:28:44.285Z,.35
2023-04-10T03:29:16.417Z,.35
2023-04-10T03:29:48.490Z,.35
2023-04-10T03:30:20.323Z,.35
2023-04-10T03:30:52.214Z,.35
2023-04-10T03:31:24.278Z,.35
2023-04-10T03:31:56.328Z,.35
2023-04-10T03:32:28.205Z,.35
2023-04-10T03:33:00.105Z,.35
2023-04-10T03:33:32.581Z,.35
2023-04-10T03:34:04.194Z,.35
2023-04-10T03:34:35.982Z,.35
2023-04-10T03:35:08.036Z,.23
2023-04-10T03:35:40.103Z,.38
2023-04-10T03:36:12.126Z,.50
2023-04-10T03:36:43.964Z,.38
2023-04-10T03:37:15.997Z,.38
2023-04-10T03:37:48.041Z,.38
2023-04-10T03:38:19.983Z,.38
2023-04-10T03:38:51.788Z,.38
2023-04-10T03:39:23.822Z,.38
2023-04-10T03:39:55.881Z,.38
2023-04-10T03:40:27.996Z,.38
2023-04-10T03:40:59.694Z,.38
2023-04-10T03:41:31.748Z,.38
2023-04-10T03:42:03.805Z,.27
2023-04-10T03:42:35.812Z,.27
2023-04-10T03:43:07.640Z,.27
2023-04-10T03:43:39.637Z,.27
2023-04-10T03:44:11.686Z,.27
2023-04-10T03:44:43.710Z,.27
2023-04-10T03:45:15.607Z,.27
2023-04-10T03:45:47.543Z,.27
2023-04-10T03:46:19.570Z,.27
2023-04-10T03:46:51.777Z,.27
2023-04-10T03:47:23.739Z,.27
2023-04-10T03:47:55.536Z,.27
2023-04-10T03:48:27.479Z,.27
2023-04-10T03:48:59.534Z,.27
2023-04-10T03:49:31.529Z,.27
2023-04-10T03:50:03.501Z,.27
2023-04-10T03:50:35.395Z,.27
2023-04-10T03:51:07.402Z,.27
2023-04-10T03:51:39.429Z,.27
2023-04-10T03:52:11.372Z,.27
2023-04-10T03:52:43.313Z,.27
2023-04-10T03:53:15.322Z,.27
2023-04-10T03:53:47.339Z,.27
2023-04-10T03:54:19.154Z,.27
2023-04-10T03:54:51.397Z,.27
2023-04-10T03:55:23.232Z,.27
2023-04-10T03:55:55.305Z,.27
2023-04-10T03:56:27.060Z,.27
2023-04-10T03:56:59.105Z,.27
2023-04-10T03:57:31.258Z,.27
2023-04-10T03:58:03.191Z,.27
2023-04-10T03:58:34.967Z,.27
2023-04-10T03:59:07.012Z,.27
2023-04-10T03:59:39.165Z,.27
2023-04-10T04:00:11.561Z,.27
2023-04-10T04:00:42.902Z,.27
2023-04-10T04:01:15.017Z,.27
2023-04-10T04:01:46.974Z,.27
2023-04-10T04:02:19.176Z,.27
2023-04-10T04:02:51.185Z,.27
2023-04-10T04:03:23.370Z,.38
2023-04-10T04:03:55.228Z,.38
2023-04-10T04:04:27.125Z,.38
2023-04-10T04:04:58.725Z,.38
2023-04-10T04:05:31.027Z,.38
2023-04-10T04:06:02.778Z,.38
2023-04-10T04:06:35.284Z,.38
2023-04-10T04:07:06.580Z,.38
2023-04-10T04:07:38.609Z,.38
2023-04-10T04:08:10.881Z,.38
2023-04-10T04:08:42.731Z,.27
2023-04-10T04:09:14.669Z,.27
2023-04-10T04:09:46.531Z,.27
2023-04-10T04:10:18.573Z,.27
2023-04-10T04:10:50.884Z,.27
2023-04-10T04:11:22.432Z,.27
2023-04-10T04:11:54.457Z,.27
2023-04-10T04:12:26.482Z,.27
2023-04-10T04:12:58.486Z,.27
2023-04-10T04:13:30.780Z,.27
2023-04-10T04:14:02.424Z,.27
2023-04-10T04:14:34.427Z,.27
2023-04-10T04:15:06.715Z,.22
2023-04-10T04:15:38.238Z,.22
2023-04-10T04:16:10.302Z,.22
2023-04-10T04:16:42.328Z,.22
2023-04-10T04:17:14.300Z,.22
2023-04-10T04:17:46.378Z,.22
2023-04-10T04:18:18.149Z,.22
2023-04-10T04:18:50.237Z,.22
2023-04-10T04:19:22.285Z,.22
2023-04-10T04:19:54.254Z,.37
2023-04-10T04:20:26.089Z,.37
2023-04-10T04:20:58.092Z,.37
2023-04-10T04:21:30.315Z,.37
2023-04-10T04:22:02.224Z,.37
2023-04-10T04:22:34.036Z,.37
2023-04-10T04:23:06.014Z,.37
2023-04-10T04:23:38.013Z,.37
2023-04-10T04:24:10.079Z,.37
2023-04-10T04:24:41.938Z,.37
2023-04-10T04:25:13.942Z,.37
2023-04-10T04:25:45.955Z,.37
2023-04-10T04:26:17.988Z,.37
2023-04-10T04:26:49.830Z,.37
2023-04-10T04:27:21.833Z,.37
2023-04-10T04:27:53.881Z,.26
2023-04-10T04:28:26.411Z,.26
2023-04-10T04:28:57.743Z,.26
2023-04-10T04:29:29.805Z,.26
2023-04-10T04:30:02.207Z,.26
2023-04-10T04:30:33.823Z,.26
2023-04-10T04:31:05.646Z,.26
2023-04-10T04:31:37.670Z,.26
2023-04-10T04:32:09.747Z,.26
2023-04-10T04:32:41.826Z,.26
2023-04-10T04:33:13.564Z,.26
2023-04-10T04:33:45.563Z,.26
2023-04-10T04:34:17.602Z,.26
2023-04-10T04:34:49.637Z,.26
2023-04-10T04:35:21.534Z,.26
2023-04-10T04:35:53.595Z,.26
2023-04-10T04:36:25.497Z,.15
2023-04-10T04:36:57.570Z,.15
2023-04-10T04:37:29.391Z,.15
2023-04-10T04:38:01.557Z,.15
2023-04-10T04:38:33.705Z,.15
2023-04-10T04:39:05.469Z,.15
2023-04-10T04:39:37.280Z,.15
2023-04-10T04:40:09.328Z,.15
2023-04-10T04:40:41.390Z,.15
2023-04-10T04:41:13.381Z,.15
2023-04-10T04:41:45.377Z,.15
2023-04-10T04:42:17.244Z,.15
2023-04-10T04:42:49.212Z,.15
2023-04-10T04:43:21.564Z,.15
2023-04-10T04:43:53.372Z,.15
2023-04-10T04:44:25.375Z,.15
2023-04-10T04:44:57.152Z,.15
2023-04-10T04:45:29.276Z,.15
2023-04-10T04:46:01.350Z,.15
2023-04-10T04:46:33.028Z,.15
2023-04-10T04:47:05.032Z,.15
2023-04-10T04:47:37.104Z,.15
2023-04-10T04:48:09.089Z,.15
2023-04-10T04:48:41.027Z,.26
2023-04-10T04:49:12.961Z,.26
2023-04-10T04:49:44.985Z,.26
2023-04-10T04:50:16.808Z,.26
2023-04-10T04:50:48.856Z,.26
2023-04-10T04:51:20.955Z,.26
2023-04-10T04:51:52.904Z,.26
2023-04-10T04:52:24.908Z,.26
2023-04-10T04:52:56.741Z,.26
2023-04-10T04:53:28.943Z,.26
2023-04-10T04:54:01.032Z,.26
2023-04-10T04:54:32.878Z,.26
2023-04-10T04:55:04.687Z,.26
2023-04-10T04:55:36.670Z,.26
2023-04-10T04:56:08.730Z,.26
2023-04-10T04:56:40.830Z,.26
2023-04-10T04:57:12.533Z,.37
2023-04-10T04:57:44.596Z,.37
2023-04-10T04:58:16.574Z,.37
2023-04-10T04:58:48.648Z,.37
2023-04-10T04:59:20.547Z,.37
2023-04-10T04:59:52.496Z,.37
2023-04-10T05:00:24.642Z,.37
2023-04-10T05:00:56.582Z,.37
2023-04-10T05:01:28.460Z,.37
2023-04-10T05:02:00.700Z,.37
2023-04-10T05:02:32.587Z,.41
2023-04-10T05:03:04.575Z,.41
2023-04-10T05:03:36.330Z,.27
2023-04-10T05:04:08.426Z,.27
2023-04-10T05:04:40.403Z,.27
2023-04-10T05:05:12.362Z,.27
2023-04-10T05:05:44.166Z,.27
2023-04-10T05:06:16.210Z,.27
2023-04-10T05:06:48.240Z,.27
2023-04-10T05:07:20.280Z,.27
2023-04-10T05:07:52.089Z,.27
2023-04-10T05:08:24.103Z,.27
2023-04-10T05:08:56.504Z,.27
2023-04-10T05:09:28.304Z,.27
2023-04-10T05:10:00.333Z,.27
2023-04-10T05:10:32.033Z,.27
2023-04-10T05:11:04.057Z,.27
2023-04-10T05:11:36.100Z,.38
2023-04-10T05:12:07.908Z,.38
2023-04-10T05:12:39.925Z,.52
2023-04-10T05:13:11.979Z,.52
2023-04-10T05:13:43.963Z,.52
2023-04-10T05:14:15.952Z,.64
2023-04-10T05:14:47.847Z,.64
2023-04-10T05:15:19.930Z,.64
2023-04-10T05:15:52.177Z,.75
2023-04-10T05:16:23.941Z,.75
2023-04-10T05:16:55.734Z,.75
2023-04-10T05:17:27.869Z,.75
2023-04-10T05:17:59.842Z,.75
2023-04-10T05:18:31.905Z,.75
2023-04-10T05:19:03.665Z,.86
2023-04-10T05:19:35.655Z,.86
2023-04-10T05:20:07.738Z,.86
2023-04-10T05:20:39.733Z,.86
2023-04-10T05:21:11.633Z,.86
2023-04-10T05:21:43.594Z,.86
2023-04-10T05:22:18.109Z,.86
2023-04-10T05:22:47.609Z,.77
2023-04-10T05:23:19.454Z,.77
2023-04-10T05:23:51.515Z,.91
2023-04-10T05:24:23.547Z,.77
2023-04-10T05:24:55.528Z,.91
2023-04-10T05:25:27.581Z,.91
2023-04-10T05:25:59.403Z,.91
2023-04-10T05:26:31.480Z,.91
2023-04-10T05:27:03.584Z,.77
2023-04-10T05:27:35.272Z,1.02
2023-04-10T05:28:07.321Z,1.02
2023-04-10T05:28:39.358Z,.87
2023-04-10T05:29:11.263Z,.87
2023-04-10T05:29:43.226Z,.99
2023-04-10T05:30:15.337Z,.99
2023-04-10T05:30:47.321Z,.99
2023-04-10T05:31:19.128Z,.99
2023-04-10T05:31:53.216Z,.99
2023-04-10T05:32:23.159Z,.99
2023-04-10T05:32:55.183Z,1.10
2023-04-10T05:33:27.044Z,1.10
2023-04-10T05:33:59.064Z,1.10
2023-04-10T05:34:31.326Z,1.10
2023-04-10T05:35:03.133Z,1.10
2023-04-10T05:35:35.322Z,1.21
2023-04-10T05:36:07.019Z,1.21
2023-04-10T05:36:38.980Z,1.21
2023-04-10T05:37:11.193Z,1.21
2023-04-10T05:37:43.441Z,1.26
2023-04-10T05:38:15.269Z,1.26
2023-04-10T05:38:46.875Z,1.26
2023-04-10T05:39:18.929Z,1.26
2023-04-10T05:39:50.890Z,1.26
2023-04-10T05:40:22.822Z,1.22
2023-04-10T05:40:54.820Z,1.22
2023-04-10T05:41:26.854Z,1.22
2023-04-10T05:41:58.741Z,1.22
2023-04-10T05:42:31.063Z,1.34
2023-04-10T05:43:02.765Z,1.34
2023-04-10T05:43:35.231Z,1.34
2023-04-10T05:44:06.650Z,1.34
2023-04-10T05:44:38.707Z,1.45
2023-04-10T05:45:10.859Z,1.45
2023-04-10T05:45:42.656Z,1.45
2023-04-10T05:46:14.527Z,1.45
2023-04-10T05:46:46.641Z,1.45
2023-04-10T05:47:19.055Z,1.45
2023-04-10T05:47:50.706Z,1.45
2023-04-10T05:48:22.426Z,1.56
2023-04-10T05:48:54.640Z,1.56
2023-04-10T05:49:26.504Z,1.40
2023-04-10T05:49:58.479Z,1.45
2023-04-10T05:50:30.665Z,1.45
2023-04-10T05:51:02.339Z,1.45
2023-04-10T05:51:34.340Z,1.56
2023-04-10T05:52:06.351Z,1.56
2023-04-10T05:52:38.271Z,1.56
2023-04-10T05:53:10.360Z,1.56
2023-04-10T05:53:42.258Z,1.68
2023-04-10T05:54:14.276Z,1.68
2023-04-10T05:54:46.101Z,1.68
2023-04-10T05:55:18.174Z,1.68
2023-04-10T05:55:50.174Z,1.63
2023-04-10T05:56:22.206Z,1.63
2023-04-10T05:56:54.217Z,1.63
2023-04-10T05:57:26.038Z,1.63
2023-04-10T05:57:58.170Z,1.63
2023-04-10T05:58:30.056Z,1.74
2023-04-10T05:59:02.133Z,1.74
2023-04-10T05:59:33.945Z,1.74
2023-04-10T06:00:06.352Z,1.74
2023-04-10T06:00:37.995Z,1.74
2023-04-10T06:01:10.039Z,1.74
2023-04-10T06:01:41.993Z,1.79
2023-04-10T06:02:13.914Z,1.79
2023-04-10T06:02:46.101Z,1.79
2023-04-10T06:03:18.032Z,1.79
2023-04-10T06:03:49.923Z,1.79
2023-04-10T06:04:21.980Z,1.79
2023-04-10T06:04:53.955Z,1.90
2023-04-10T06:05:26.042Z,1.90
2023-04-10T06:05:57.893Z,1.90
2023-04-10T06:06:29.707Z,1.90
2023-04-10T06:07:01.713Z,2.02
2023-04-10T06:07:33.730Z,1.87
2023-04-10T06:08:05.661Z,1.87
2023-04-10T06:08:37.606Z,1.98
2023-04-10T06:09:09.659Z,1.98
2023-04-10T06:09:41.982Z,1.98
2023-04-10T06:10:13.502Z,2.09
2023-04-10T06:10:45.790Z,2.09
2023-04-10T06:11:17.542Z,2.13
2023-04-10T06:11:49.564Z,2.13
2023-04-10T06:12:21.532Z,1.98
2023-04-10T06:12:53.400Z,2.08
2023-04-10T06:13:25.525Z,2.20
2023-04-10T06:13:57.474Z,2.20
2023-04-10T06:14:29.299Z,2.31
2023-04-10T06:15:01.581Z,2.31
2023-04-10T06:15:33.570Z,2.42
2023-04-10T06:16:05.510Z,2.47
2023-04-10T06:16:37.257Z,2.47
2023-04-10T06:17:09.241Z,2.31
2023-04-10T06:17:41.381Z,2.42
2023-04-10T06:18:13.314Z,2.42
2023-04-10T06:18:45.110Z,2.53
2023-04-10T06:19:17.119Z,2.53
2023-04-10T06:19:49.163Z,2.64
2023-04-10T06:20:21.290Z,2.64
2023-04-10T06:20:53.165Z,2.48
2023-04-10T06:21:25.094Z,2.59
2023-04-10T06:21:57.176Z,2.64
2023-04-10T06:22:29.104Z,2.64
2023-04-10T06:23:01.054Z,2.75
2023-04-10T06:23:32.924Z,2.75
2023-04-10T06:24:05.481Z,2.86
2023-04-10T06:24:37.437Z,2.86
2023-04-10T06:25:08.855Z,2.81
2023-04-10T06:25:41.042Z,2.81
2023-04-10T06:26:12.858Z,2.81
2023-04-10T06:26:45.490Z,2.92
2023-04-10T06:27:17.812Z,2.97
2023-04-10T06:27:49.055Z,2.97
2023-04-10T06:28:20.925Z,3.08
2023-04-10T06:28:53.187Z,2.90
2023-04-10T06:29:24.681Z,3.02
2023-04-10T06:29:56.747Z,3.02
2023-04-10T06:30:28.842Z,3.13
2023-04-10T06:31:00.954Z,3.24
2023-04-10T06:31:32.572Z,3.24
2023-04-10T06:32:04.639Z,3.29
2023-04-10T06:32:36.589Z,3.29
2023-04-10T06:33:08.626Z,3.39
2023-04-10T06:33:40.803Z,3.39
2023-04-10T06:34:12.495Z,3.34
2023-04-10T06:34:44.520Z,3.34
2023-04-10T06:35:16.619Z,3.44
2023-04-10T06:35:48.769Z,3.44
2023-04-10T06:36:20.469Z,3.28
2023-04-10T06:36:52.429Z,3.28
2023-04-10T06:37:24.468Z,3.55
2023-04-10T06:37:56.886Z,3.39
2023-04-10T06:38:28.302Z,3.44
2023-04-10T06:39:00.457Z,3.44
2023-04-10T06:39:32.394Z,3.55
2023-04-10T06:40:04.436Z,3.55
2023-04-10T06:40:36.209Z,3.55
2023-04-10T06:41:08.229Z,3.55
2023-04-10T06:41:40.310Z,3.55
2023-04-10T06:42:12.319Z,3.66
2023-04-10T06:42:44.106Z,3.66
2023-04-10T06:43:16.116Z,3.66
2023-04-10T06:43:48.287Z,3.66
2023-04-10T06:44:20.327Z,3.66
2023-04-10T06:44:52.021Z,3.77
2023-04-10T06:45:24.280Z,3.77
2023-04-10T06:45:56.108Z,3.59
2023-04-10T06:46:28.311Z,3.77
2023-04-10T06:47:00.026Z,3.70
2023-04-10T06:47:31.991Z,3.70
2023-04-10T06:48:04.014Z,3.70
2023-04-10T06:48:36.026Z,3.75
2023-04-10T06:49:07.887Z,3.75
2023-04-10T06:49:39.865Z,3.75
2023-04-10T06:50:11.931Z,3.86
2023-04-10T06:50:43.938Z,3.86
2023-04-10T06:51:15.753Z,3.86
2023-04-10T06:51:47.804Z,3.97
2023-04-10T06:52:19.840Z,3.80
2023-04-10T06:52:51.934Z,3.91
2023-04-10T06:53:23.762Z,3.91
2023-04-10T06:53:55.750Z,3.73
2023-04-10T06:54:27.814Z,3.84
2023-04-10T06:54:59.869Z,3.84
2023-04-10T06:55:31.794Z,3.89
2023-04-10T06:56:03.997Z,3.99
2023-04-10T06:56:35.698Z,3.81
2023-04-10T06:57:07.531Z,3.92
2023-04-10T06:57:39.541Z,4.03
2023-04-10T06:58:11.784Z,3.85
2023-04-10T06:58:43.719Z,3.96
2023-04-10T06:59:15.429Z,4.01
2023-04-10T06:59:47.457Z,4.11
2023-04-10T07:00:20.060Z,4.04
2023-04-10T07:00:51.672Z,4.04
2023-04-10T07:01:23.608Z,4.34
2023-04-10T07:01:55.480Z,4.34
2023-04-10T07:02:27.557Z,4.25
2023-04-10T07:02:59.459Z,4.25
2023-04-10T07:03:31.475Z,4.25
2023-04-10T07:04:03.296Z,4.30
2023-04-10T07:04:35.457Z,4.30
2023-04-10T07:05:07.335Z,4.30
2023-04-10T07:05:41.970Z,4.30
2023-04-10T07:06:11.481Z,4.41
2023-04-10T07:06:43.442Z,4.41
2023-04-10T07:07:15.128Z,4.41
2023-04-10T07:07:47.097Z,4.22
2023-04-10T07:08:19.382Z,4.22
2023-04-10T07:08:51.358Z,4.22
2023-04-10T07:09:22.995Z,4.22
2023-04-10T07:09:55.087Z,4.22
2023-04-10T07:10:27.094Z,4.22
2023-04-10T07:10:59.153Z,4.22
2023-04-10T07:11:31.024Z,4.34